Flight Track Log - Related Links

Times and Time Zones

All times are in EDT time to prevent confusion due to time zone crossing. See the LIA553 flight status page for this flight to view local times or setup timezone preferences in your user account.

Time Position Orientation Groundspeed Altitude Reporting Facility
EDT Latitude Longitude Course Direction KTS MPH feet Rate Location/Type
Sat 02:45:00 PM 17.5602 -62.4186 126° Southeast  Level FlightAware Approximate
Sat 02:46:00 PM 17.5105 -62.3459 126° Southeast  Level FlightAware Approximate
Sat 02:47:00 PM 17.4607 -62.2733 126° Southeast  Level FlightAware Approximate
Sat 02:48:00 PM 17.4081 -62.2030 131° Southeast  Level FlightAware Approximate
Sat 02:49:00 PM 17.3520 -62.1357 131° Southeast  Level FlightAware Approximate
Sat 02:50:00 PM 17.3029 -62.0627 125° Southeast  Level FlightAware Approximate
Sat 02:51:00 PM 17.2541 -61.9894 125° Southeast  Level FlightAware Approximate
Sat 02:52:00 PM 17.2017 -61.9189 128° Southeast  Level FlightAware Approximate
Sat 02:53:00 PM 17.1491 -61.8487 125° Southeast  Level FlightAware Approximate
Sat 02:54:00 PM 17.1367 -61.7927 90° East  Level Estimated
Sat 02:55:00 PM 17.1367 -61.7927 90° East  Level Estimated
Sat 02:56:00 PM 17.1367 -61.7927 90° East  Level Estimated
Sat 02:57:00 PM 17.1367 -61.7927 90° East  Level Estimated
Sat 02:58:00 PM 17.1367 -61.7927 90° East  Level Estimated
Sat 02:59:00 PM 17.1367 -61.7927 90° East  Level Estimated
Sat 03:00:00 PM 17.1367 -61.7927 90° East  Level Estimated
Sat 03:01:00 PM 17.1367 -61.7927 90° East  Level Estimated
Sat 03:02:00 PM 17.1367 -61.7927 90° East  Level Estimated
Sat 03:03:00 PM 17.1367 -61.7927 90° East  Level Estimated
Sat 03:04:00 PM 17.1367 -61.7927 90° East  Level Estimated
Sat 03:05:00 PM 17.1367 -61.7927 90° East  Level Estimated
Sat 03:06:00 PM 17.1367 -61.7927 90° East  Level Estimated
Sat 03:07:00 PM 17.1367 -61.7927 90° East  Level Estimated
Sat 03:08:00 PM 17.1367 -61.7927 90° East  Level Estimated
Sat 03:09:00 PM 17.1367 -61.7927 90° East  Level Estimated
Sat 03:10:00 PM 17.1367 -61.7927 90° East  Level Estimated

Login

Don't have an account? Register now (free) for customized features, flight alerts, and more!